Terminal Aerodrome Forecast
Issued by NWS Mt. Holly, NJ

Home | Current Version | Previous Version | Text Only | Print | Product List | Glossary On
Versions: 1 2 3 4 5 6 7 8 9 10 11 12 13 14 15 16 17 18 19 20 21 22 23 24
000
FTUS41 KPHI 240540
TAFACY
TAF
KACY 240540Z 2406/2506 16015G26KT P6SM OVC025
     FM240900 15017G29KT 6SM -SHRA OVC030 WS020/18045KT
     FM241300 16018G32KT 4SM SHRA OVC025 WS020/18045KT
     FM241600 16013G30KT 2SM +SHRA OVC025 WS020/19045KT PROB30
      2417/2419 TSRA OVC025CB
     FM242100 17008KT 6SM -SHRA BKN050
     FM250000 18007KT P6SM VCSH BKN050
     FM250500 21004KT P6SM BKN050=

USA.gov is the U.S. government's official web portal to all federal, state and local government web resources and services.